CYYB

North Bay Airport

North Bay, , Canada
METAR CYYB 231400Z 11015KT 30SM OVC075 M03/M08 A3022 RMK AC8 SLP258
Observed Flight Rules
Feb-23 @ 14:00 UTC (34 minutes ago) Visual Flight Rules
Wind Visibility Clouds
110° at 15 knots 30 miles
  • Overcast at 7,500' AGL
Temperatures Readings
Current -3°C / 27°F
Dewpoint -8°C / 18°F
Humidity 69%
Altimeter 30.22" Hg
Pressure 1025.8 hPa
Elevation 371
METAR CYYB 231400Z 11015KT 30SM OVC075 M03/M08 A3022 RMK AC8 SLP258
Observed Flight Rules
Feb-23 @ 14:00 UTC
(34 minutes ago)
VFR
Wind Visibility
110° at 15 knots 30 miles
Clouds
  • Overcast at 7,500' AGL
Temperature Dewpoint
-3°C / 27°F -8°C / 18°F
Humidity Altimeter Pressure
69% 30.22" Hg 1025.8 hPa